Time;durP1;ratioP1;P1;durP2;ratioP2;P2;SDS_P1;SDS_P2;PMS_P1;PMS_P2;Temp;Humidity;BMP_temperature;BMP_pressure;BME280_temperature;BME280_humidity;BME280_pressure;Samples;Min_cycle;Max_cycle;Signal;HPM_P1;HPM_P2
2021/12/29 00:01:50;;;;;;;3.85;1.20;;;6.10;99.90;;;;;;4612061;28;10000325;-73
2021/12/29 00:04:16;;;;;;;4.75;1.38;;;6.10;99.90;;;;;;4956135;28;20038;-74
2021/12/29 00:06:42;;;;;;;4.50;1.33;;;6.10;99.90;;;;;;4959898;28;20102;-74
2021/12/29 00:09:08;;;;;;;5.47;1.50;;;6.10;99.90;;;;;;4961117;28;20034;-74
2021/12/29 00:11:38;;;;;;;3.95;1.40;;;6.00;99.90;;;;;;4964713;28;20023;-74
2021/12/29 00:14:04;;;;;;;5.03;1.05;;;6.10;99.90;;;;;;4965526;28;20027;-74
2021/12/29 00:16:34;;;;;;;5.50;1.13;;;6.10;99.90;;;;;;4963748;28;20085;-74
2021/12/29 00:19:04;;;;;;;4.70;0.93;;;6.00;99.90;;;;;;4970978;28;20034;-73
2021/12/29 00:21:32;;;;;;;7.60;1.33;;;6.10;99.90;;;;;;4960177;28;20029;-74
2021/12/29 00:23:59;;;;;;;5.10;1.27;;;6.00;99.90;;;;;;4965090;28;20035;-74
2021/12/29 00:26:26;;;;;;;6.07;1.45;;;6.00;99.90;;;;;;4961840;28;20031;-73
2021/12/29 00:28:52;;;;;;;5.25;1.65;;;6.00;99.90;;;;;;4958882;28;20038;-74
2021/12/29 00:31:17;;;;;;;1.95;1.10;;;6.00;99.90;;;;;;4966212;28;20037;-74
2021/12/29 00:33:43;;;;;;;4.40;1.20;;;6.00;99.90;;;;;;4961272;28;20448;-74
2021/12/29 00:36:08;;;;;;;3.33;1.40;;;6.00;99.90;;;;;;4964418;28;20072;-74
2021/12/29 00:38:34;;;;;;;3.50;1.27;;;6.00;99.90;;;;;;4965892;28;20031;-74
2021/12/29 00:41:00;;;;;;;3.03;1.40;;;6.00;99.90;;;;;;4967191;28;20206;-73
2021/12/29 00:43:25;;;;;;;3.97;1.35;;;5.90;99.90;;;;;;4968523;28;20130;-74
2021/12/29 00:45:51;;;;;;;11.55;5.45;;;6.00;99.90;;;;;;4962405;28;20048;-74
2021/12/29 00:48:19;;;;;;;6.57;2.75;;;5.90;99.90;;;;;;4962585;28;20019;-76
2021/12/29 00:50:45;;;;;;;4.80;1.90;;;5.90;99.90;;;;;;4956559;28;20077;-73
2021/12/29 00:53:10;;;;;;;6.38;3.40;;;5.90;99.90;;;;;;4969234;28;21486;-74
2021/12/29 00:55:38;;;;;;;8.70;4.55;;;5.90;99.90;;;;;;4968109;28;20027;-73
2021/12/29 00:58:07;;;;;;;5.40;3.53;;;5.90;99.90;;;;;;4963372;28;20746;-74
2021/12/29 01:00:37;;;;;;;8.85;3.72;;;5.90;99.90;;;;;;4963927;28;20630;-75
2021/12/29 01:03:04;;;;;;;6.68;2.47;;;5.90;99.90;;;;;;4962480;28;20129;-76
2021/12/29 01:05:30;;;;;;;8.75;3.95;;;5.90;99.90;;;;;;4965168;28;20030;-73
2021/12/29 01:07:56;;;;;;;8.40;3.55;;;5.90;99.90;;;;;;4964030;28;20050;-76
2021/12/29 01:10:21;;;;;;;8.88;4.78;;;5.90;99.90;;;;;;4961534;28;20632;-76
2021/12/29 01:12:56;;;;;;;9.98;6.28;;;5.90;99.90;;;;;;4965224;28;20031;-76
2021/12/29 01:15:27;;;;;;;11.65;6.55;;;5.90;99.90;;;;;;4963112;28;20039;-76
2021/12/29 01:17:55;;;;;;;10.05;5.80;;;5.90;99.90;;;;;;4962584;28;20057;-76
2021/12/29 01:20:21;;;;;;;15.98;9.57;;;5.90;99.90;;;;;;4966776;28;20482;-76
2021/12/29 01:22:48;;;;;;;8.65;4.85;;;5.90;99.90;;;;;;4962873;28;20093;-75
2021/12/29 01:25:14;;;;;;;7.78;4.72;;;5.90;99.90;;;;;;4963915;28;20037;-76
2021/12/29 01:27:39;;;;;;;8.65;5.57;;;5.90;99.90;;;;;;4964372;28;20039;-76
2021/12/29 01:30:10;;;;;;;5.95;3.83;;;5.90;99.90;;;;;;4963181;28;20033;-73
2021/12/29 01:32:38;;;;;;;6.25;3.38;;;5.90;99.90;;;;;;4967957;28;20137;-73
2021/12/29 01:35:05;;;;;;;7.25;4.10;;;5.90;99.90;;;;;;4957033;28;20031;-75
2021/12/29 01:37:31;;;;;;;6.50;3.88;;;5.90;99.90;;;;;;4961714;28;20129;-76
2021/12/29 01:39:56;;;;;;;9.48;4.88;;;5.90;99.90;;;;;;4958994;28;20039;-76
2021/12/29 01:42:22;;;;;;;6.78;4.15;;;5.90;99.90;;;;;;4966081;28;20498;-75
2021/12/29 01:44:48;;;;;;;10.80;6.25;;;5.90;99.90;;;;;;4966094;28;20026;-76
2021/12/29 01:47:30;;;;;;;8.43;4.60;;;5.90;99.90;;;;;;4962718;28;20035;-76
2021/12/29 01:49:56;;;;;;;10.75;5.55;;;5.90;99.90;;;;;;4959482;28;20042;-75
2021/12/29 01:52:27;;;;;;;13.82;6.95;;;5.90;99.90;;;;;;4962125;28;20108;-75
2021/12/29 01:54:53;;;;;;;8.20;5.18;;;6.00;99.90;;;;;;4962601;28;20045;-76
2021/12/29 01:57:19;;;;;;;11.68;6.03;;;5.90;99.90;;;;;;4961861;28;20023;-73
2021/12/29 01:59:46;;;;;;;7.63;5.07;;;6.00;99.90;;;;;;4958950;28;20660;-75
2021/12/29 02:02:15;;;;;;;11.40;5.75;;;6.00;99.90;;;;;;4964236;28;20039;-76
2021/12/29 02:04:46;;;;;;;14.45;7.32;;;6.00;99.90;;;;;;4962333;28;20026;-76
2021/12/29 02:07:12;;;;;;;9.23;5.68;;;6.00;99.90;;;;;;4965591;28;20075;-76
2021/12/29 02:09:38;;;;;;;11.38;7.47;;;6.00;99.90;;;;;;4960486;28;20030;-75
2021/12/29 02:12:05;;;;;;;10.90;6.13;;;6.00;99.90;;;;;;4965522;28;20026;-76
2021/12/29 02:14:31;;;;;;;7.95;5.70;;;6.00;99.90;;;;;;4961923;28;20059;-76
2021/12/29 02:16:57;;;;;;;12.52;6.95;;;5.90;99.90;;;;;;4957193;28;20188;-75
2021/12/29 02:19:25;;;;;;;8.90;5.30;;;6.00;99.90;;;;;;4956071;28;20077;-73
2021/12/29 02:22:02;;;;;;;9.63;6.82;;;6.00;99.90;;;;;;4955509;28;20066;-75
2021/12/29 02:24:37;;;;;;;8.90;5.68;;;6.00;99.90;;;;;;4955110;28;20087;-73
2021/12/29 02:27:05;;;;;;;11.15;6.38;;;6.00;99.90;;;;;;4962219;28;20027;-75
2021/12/29 02:29:31;;;;;;;8.80;6.80;;;6.00;99.90;;;;;;4960696;28;20020;-76
2021/12/29 02:31:57;;;;;;;6.93;5.28;;;6.00;99.90;;;;;;4957720;28;20118;-76
2021/12/29 02:34:22;;;;;;;5.95;4.78;;;6.00;99.90;;;;;;4955893;28;20107;-75
2021/12/29 02:36:48;;;;;;;8.30;6.13;;;6.00;99.90;;;;;;4960215;28;20051;-76
2021/12/29 02:39:18;;;;;;;10.77;6.30;;;6.00;99.90;;;;;;4956153;28;20027;-76
2021/12/29 02:41:50;;;;;;;7.90;5.20;;;6.10;99.90;;;;;;4951823;28;20031;-76
2021/12/29 02:44:23;;;;;;;7.93;5.28;;;6.00;99.90;;;;;;4961126;28;20058;-76
2021/12/29 02:46:49;;;;;;;6.85;5.00;;;6.10;99.90;;;;;;4956692;28;20577;-76
2021/12/29 02:49:15;;;;;;;8.27;4.90;;;6.10;99.90;;;;;;4957949;28;20044;-76
2021/12/29 02:51:40;;;;;;;6.95;4.95;;;6.10;99.90;;;;;;4957727;28;20027;-75
2021/12/29 02:54:06;;;;;;;7.78;5.30;;;6.10;99.90;;;;;;4960372;28;20054;-75
2021/12/29 02:56:32;;;;;;;7.07;5.13;;;6.10;99.90;;;;;;4961251;28;20499;-75
2021/12/29 02:58:58;;;;;;;7.25;5.20;;;6.10;99.90;;;;;;4959125;28;20093;-75
2021/12/29 03:01:27;;;;;;;7.85;5.13;;;6.10;99.90;;;;;;4963458;28;20031;-75
2021/12/29 03:03:53;;;;;;;6.22;4.75;;;6.10;99.90;;;;;;4964228;28;20035;-75
2021/12/29 03:06:19;;;;;;;7.97;4.88;;;6.20;99.90;;;;;;4962882;28;20062;-75
2021/12/29 03:08:45;;;;;;;5.75;4.97;;;6.20;99.90;;;;;;4960539;28;20162;-75
2021/12/29 03:11:11;;;;;;;6.03;5.13;;;6.20;99.90;;;;;;4955950;28;20030;-75
2021/12/29 03:13:39;;;;;;;8.23;5.80;;;6.10;99.90;;;;;;4953095;28;20031;-75
2021/12/29 03:16:06;;;;;;;9.63;6.38;;;6.20;99.90;;;;;;4956426;28;20034;-75
2021/12/29 03:18:31;;;;;;;6.97;5.53;;;6.10;99.90;;;;;;4960214;28;20061;-74
2021/12/29 03:20:57;;;;;;;6.65;5.55;;;6.20;99.90;;;;;;4962721;28;20046;-75
2021/12/29 03:23:23;;;;;;;12.93;5.88;;;6.20;99.90;;;;;;4962281;28;20023;-75
2021/12/29 03:25:49;;;;;;;9.57;5.63;;;6.20;99.90;;;;;;4965556;28;20033;-76
2021/12/29 03:28:20;;;;;;;8.07;5.82;;;6.20;99.90;;;;;;4961660;28;20027;-76
2021/12/29 03:30:51;;;;;;;7.07;5.43;;;6.20;99.90;;;;;;4962397;28;20037;-76
2021/12/29 03:33:16;;;;;;;8.07;5.40;;;6.30;99.90;;;;;;4962132;28;20130;-75
2021/12/29 03:35:48;;;;;;;7.45;5.88;;;6.30;99.90;;;;;;4967871;28;20113;-75
2021/12/29 03:38:17;;;;;;;8.15;5.28;;;6.30;99.90;;;;;;4962452;28;20030;-76
2021/12/29 03:40:44;;;;;;;6.68;5.00;;;6.30;99.90;;;;;;4960559;28;20086;-75
2021/12/29 03:43:11;;;;;;;7.30;5.53;;;6.40;99.90;;;;;;4957299;28;20507;-75
2021/12/29 03:45:38;;;;;;;6.90;5.38;;;6.40;99.90;;;;;;4952616;28;20053;-75
2021/12/29 03:48:09;;;;;;;6.63;5.18;;;6.40;99.90;;;;;;4959740;28;20027;-75
2021/12/29 03:50:35;;;;;;;7.63;5.18;;;6.50;99.90;;;;;;4965398;28;20030;-76
2021/12/29 03:53:01;;;;;;;6.43;5.20;;;6.50;99.90;;;;;;4962350;28;20554;-75
2021/12/29 03:55:26;;;;;;;7.68;5.55;;;6.50;99.90;;;;;;4962519;28;20031;-75
2021/12/29 03:57:52;;;;;;;8.85;5.97;;;6.50;99.90;;;;;;4963047;28;20398;-75
2021/12/29 04:00:19;;;;;;;11.05;6.22;;;6.50;99.90;;;;;;4964591;28;20257;-75
2021/12/29 04:02:45;;;;;;;11.38;6.03;;;6.50;99.90;;;;;;4960607;28;20094;-75
2021/12/29 04:05:13;;;;;;;7.53;5.60;;;6.50;99.90;;;;;;4962303;28;20085;-75
2021/12/29 04:07:39;;;;;;;7.38;5.25;;;6.50;99.90;;;;;;4962578;28;20458;-75
2021/12/29 04:10:07;;;;;;;6.45;4.40;;;6.50;99.90;;;;;;4965673;28;20027;-75
2021/12/29 04:12:33;;;;;;;6.97;4.45;;;6.60;99.90;;;;;;4963929;28;20057;-75
2021/12/29 04:15:00;;;;;;;6.70;4.25;;;6.60;99.90;;;;;;4965856;28;20075;-75
2021/12/29 04:17:36;;;;;;;5.72;4.50;;;6.60;99.90;;;;;;4966842;28;20439;-75
2021/12/29 04:22:50;;;;;;;6.55;4.22;;;6.70;99.90;;;;;;4967211;28;20038;-75
2021/12/29 04:25:17;;;;;;;5.93;3.78;;;6.70;99.90;;;;;;4966753;28;20030;-75
2021/12/29 04:27:43;;;;;;;5.53;3.72;;;6.70;99.90;;;;;;4968145;28;20034;-75
2021/12/29 04:30:09;;;;;;;5.07;3.67;;;6.80;99.90;;;;;;4958458;28;20028;-75
2021/12/29 04:32:35;;;;;;;5.15;3.47;;;6.80;99.90;;;;;;4966287;28;20058;-75
2021/12/29 04:35:00;;;;;;;5.38;3.40;;;6.80;99.90;;;;;;4967671;28;20019;-74
2021/12/29 04:37:26;;;;;;;4.85;3.60;;;6.90;99.90;;;;;;4963907;28;20037;-75
2021/12/29 04:39:51;;;;;;;3.88;3.40;;;6.90;99.90;;;;;;4963843;28;20122;-75
2021/12/29 04:42:17;;;;;;;4.55;3.67;;;6.90;99.90;;;;;;4967614;28;20030;-75
2021/12/29 04:44:43;;;;;;;4.35;3.63;;;6.80;99.90;;;;;;4964357;28;20058;-75
2021/12/29 04:47:08;;;;;;;4.82;3.13;;;6.80;99.90;;;;;;4964093;28;20035;-74
2021/12/29 04:49:40;;;;;;;4.43;3.53;;;6.80;99.90;;;;;;4958316;28;20195;-75
2021/12/29 04:52:07;;;;;;;4.95;3.53;;;6.90;99.90;;;;;;4957187;28;20067;-75
2021/12/29 04:54:34;;;;;;;5.28;3.55;;;6.90;99.90;;;;;;4964751;28;20034;-76
2021/12/29 04:57:00;;;;;;;6.03;3.45;;;6.90;99.90;;;;;;4960768;28;20026;-76
2021/12/29 04:59:27;;;;;;;3.40;3.10;;;6.90;99.90;;;;;;4964148;28;20697;-75
2021/12/29 05:01:53;;;;;;;4.95;3.22;;;6.90;99.90;;;;;;4957050;28;20063;-75
2021/12/29 05:04:33;;;;;;;4.03;2.97;;;6.90;99.90;;;;;;4964897;28;20027;-75
2021/12/29 05:09:45;;;;;;;4.43;2.90;;;6.90;99.90;;;;;;4961616;28;20477;-75
2021/12/29 05:12:11;;;;;;;3.80;2.80;;;6.90;99.90;;;;;;4962588;28;20113;-75
2021/12/29 05:14:37;;;;;;;6.25;2.50;;;6.90;99.90;;;;;;4969713;28;20023;-75
2021/12/29 05:17:03;;;;;;;2.80;2.55;;;6.90;99.90;;;;;;4972986;28;20034;-76
2021/12/29 05:19:29;;;;;;;2.80;2.53;;;6.90;99.90;;;;;;4957653;28;20487;-75
2021/12/29 05:21:55;;;;;;;4.70;2.88;;;7.00;99.90;;;;;;4963792;28;20037;-75
2021/12/29 05:24:20;;;;;;;3.95;2.90;;;7.00;99.90;;;;;;4966127;28;20031;-75
2021/12/29 05:26:46;;;;;;;4.10;3.28;;;7.00;99.90;;;;;;4959467;28;20030;-75
2021/12/29 05:29:11;;;;;;;7.18;4.25;;;7.00;99.90;;;;;;4961566;28;20054;-75
2021/12/29 05:31:37;;;;;;;9.60;5.35;;;7.00;99.90;;;;;;4958716;28;20862;-75
2021/12/29 05:34:03;;;;;;;4.50;3.80;;;7.00;99.90;;;;;;4966923;28;20034;-76
2021/12/29 05:36:29;;;;;;;7.07;4.70;;;7.00;99.90;;;;;;4965600;28;20546;-75
2021/12/29 05:38:56;;;;;;;5.30;4.00;;;7.00;99.90;;;;;;4959479;28;20093;-75
2021/12/29 05:41:22;;;;;;;4.57;3.08;;;7.00;99.90;;;;;;4957326;28;20410;-75
2021/12/29 05:43:48;;;;;;;5.65;3.13;;;7.00;99.90;;;;;;4961286;28;20023;-75
2021/12/29 05:46:13;;;;;;;3.70;3.08;;;7.00;99.90;;;;;;4962871;28;20034;-75
2021/12/29 05:48:39;;;;;;;3.30;2.97;;;7.00;99.90;;;;;;4966320;28;20109;-75
2021/12/29 05:51:05;;;;;;;3.30;3.00;;;7.00;99.90;;;;;;4958880;28;20047;-75
2021/12/29 05:53:31;;;;;;;4.47;2.55;;;7.00;99.90;;;;;;4965725;28;20026;-75
2021/12/29 05:55:57;;;;;;;2.38;2.17;;;7.00;99.90;;;;;;4969267;28;20034;-76
2021/12/29 05:58:23;;;;;;;3.22;2.20;;;7.00;99.90;;;;;;4963344;28;20261;-75
2021/12/29 06:00:49;;;;;;;2.80;2.40;;;7.00;99.90;;;;;;4960857;28;20023;-75
2021/12/29 06:03:15;;;;;;;6.28;2.72;;;7.00;99.90;;;;;;4963312;28;20392;-75
2021/12/29 06:05:41;;;;;;;2.95;2.15;;;7.00;99.90;;;;;;4953770;28;20027;-75
2021/12/29 06:08:09;;;;;;;5.75;1.90;;;7.00;99.90;;;;;;4964464;28;20070;-76
2021/12/29 06:10:34;;;;;;;2.13;1.90;;;7.00;99.90;;;;;;4960450;28;20038;-75
2021/12/29 06:13:00;;;;;;;3.40;2.05;;;7.00;99.90;;;;;;4956230;28;20023;-75
2021/12/29 06:15:26;;;;;;;2.53;2.17;;;7.00;99.90;;;;;;4963310;28;20420;-75
2021/12/29 06:17:52;;;;;;;3.40;2.22;;;7.00;99.90;;;;;;4960875;28;20058;-75
2021/12/29 06:20:18;;;;;;;2.67;1.90;;;7.00;99.90;;;;;;4957611;28;20504;-75
2021/12/29 06:22:45;;;;;;;3.58;2.28;;;7.00;99.90;;;;;;4960855;28;20030;-75
2021/12/29 06:25:14;;;;;;;4.90;2.40;;;7.00;99.90;;;;;;4960069;28;20732;-75
2021/12/29 06:27:40;;;;;;;3.10;1.90;;;7.00;99.90;;;;;;4953881;28;20034;-75
2021/12/29 06:30:09;;;;;;;1.70;1.60;;;7.00;99.90;;;;;;4276540;28;10000826;-75
2021/12/29 06:32:35;;;;;;;2.60;1.92;;;7.00;99.90;;;;;;4976126;28;20080;-75
2021/12/29 06:35:00;;;;;;;3.83;1.90;;;7.10;99.90;;;;;;4981394;28;20035;-75
2021/12/29 06:37:26;;;;;;;1.92;1.67;;;7.10;99.90;;;;;;4976881;28;20132;-75
2021/12/29 06:39:51;;;;;;;4.43;1.60;;;7.10;99.90;;;;;;4966533;28;20534;-75
2021/12/29 06:42:18;;;;;;;2.13;1.63;;;7.10;99.90;;;;;;4969323;28;20046;-75
2021/12/29 06:44:45;;;;;;;2.97;1.90;;;7.10;99.90;;;;;;4978013;28;20049;-75
2021/12/29 06:47:12;;;;;;;2.08;1.85;;;7.10;99.90;;;;;;4976948;28;20038;-75
2021/12/29 06:49:38;;;;;;;5.38;2.33;;;7.10;99.90;;;;;;4981987;28;20534;-75
2021/12/29 06:52:05;;;;;;;3.67;1.90;;;7.10;99.90;;;;;;4981507;28;20092;-75
2021/12/29 06:54:32;;;;;;;2.25;2.05;;;7.10;99.90;;;;;;4984261;28;20098;-75
2021/12/29 06:56:58;;;;;;;4.00;2.28;;;7.10;99.90;;;;;;4977012;28;20052;-75
2021/12/29 06:59:23;;;;;;;2.38;2.10;;;7.10;99.90;;;;;;4971228;28;20499;-75
2021/12/29 07:01:49;;;;;;;2.88;2.15;;;7.10;99.90;;;;;;4973234;28;20125;-76
2021/12/29 07:04:15;;;;;;;2.10;1.90;;;7.10;99.90;;;;;;4964554;28;21748;-76
2021/12/29 07:06:40;;;;;;;5.75;2.05;;;7.10;99.90;;;;;;4956457;28;20074;-76
2021/12/29 07:09:06;;;;;;;2.40;2.10;;;7.10;99.90;;;;;;4961259;28;20023;-75
2021/12/29 07:11:33;;;;;;;3.05;2.10;;;7.10;99.90;;;;;;4960030;28;20023;-76
2021/12/29 07:14:02;;;;;;;2.60;2.30;;;7.10;99.90;;;;;;4959094;28;20023;-75
2021/12/29 07:16:28;;;;;;;2.72;2.03;;;7.10;99.90;;;;;;4961524;28;20474;-75
2021/12/29 07:18:54;;;;;;;2.20;2.00;;;7.10;99.90;;;;;;4956283;28;20051;-76
2021/12/29 07:21:20;;;;;;;1.98;1.77;;;7.10;99.90;;;;;;4959306;28;20114;-76
2021/12/29 07:23:46;;;;;;;2.75;1.88;;;7.10;99.90;;;;;;4954118;28;20121;-76
2021/12/29 07:26:11;;;;;;;2.53;1.73;;;7.10;99.90;;;;;;4965048;28;20030;-76
2021/12/29 07:28:38;;;;;;;2.50;2.30;;;7.10;99.90;;;;;;4961337;28;20082;-76
2021/12/29 07:31:05;;;;;;;3.22;2.30;;;7.20;99.90;;;;;;4955228;28;20565;-76
2021/12/29 07:33:32;;;;;;;26.88;20.23;;;7.20;99.90;;;;;;4961126;28;20035;-76
2021/12/29 07:35:58;;;;;;;9.38;8.38;;;7.20;99.90;;;;;;4966623;28;20050;-75
2021/12/29 07:38:23;;;;;;;14.00;11.07;;;7.20;99.90;;;;;;4967430;28;20035;-76
2021/12/29 07:40:49;;;;;;;7.00;5.68;;;7.20;99.90;;;;;;4950213;28;20388;-76
2021/12/29 07:43:15;;;;;;;5.35;4.20;;;7.30;99.90;;;;;;4959762;28;20660;-75
2021/12/29 07:45:42;;;;;;;7.00;6.40;;;7.30;99.90;;;;;;4960579;28;20042;-75
2021/12/29 07:48:09;;;;;;;3.72;3.22;;;7.30;99.90;;;;;;4960832;28;20031;-76
2021/12/29 07:50:36;;;;;;;2.55;2.28;;;7.30;99.90;;;;;;4960458;28;20034;-75
2021/12/29 07:53:03;;;;;;;3.75;3.10;;;7.30;99.90;;;;;;4949428;28;20435;-75
2021/12/29 07:55:29;;;;;;;7.32;3.90;;;7.40;99.90;;;;;;4955987;28;20598;-76
2021/12/29 07:57:55;;;;;;;5.10;3.33;;;7.40;99.90;;;;;;4971503;28;20031;-75
2021/12/29 08:00:21;;;;;;;4.28;2.67;;;7.30;99.90;;;;;;4956699;28;20093;-75
2021/12/29 08:02:47;;;;;;;3.55;2.67;;;7.30;99.90;;;;;;4964878;28;20439;-75
2021/12/29 08:05:13;;;;;;;3.47;2.47;;;7.40;99.90;;;;;;4965680;28;20431;-76
2021/12/29 08:07:39;;;;;;;3.60;3.03;;;7.40;99.90;;;;;;4966909;28;20551;-75
2021/12/29 08:10:05;;;;;;;6.88;4.10;;;7.40;99.90;;;;;;4967958;28;20114;-75
2021/12/29 08:12:31;;;;;;;7.50;6.70;;;7.40;99.90;;;;;;4971554;28;20050;-75
2021/12/29 08:14:57;;;;;;;12.75;10.48;;;7.40;99.90;;;;;;4966719;28;20035;-75
2021/12/29 08:17:23;;;;;;;6.95;6.05;;;7.30;99.90;;;;;;4964450;28;20085;-76
2021/12/29 08:19:50;;;;;;;9.45;7.75;;;7.40;99.90;;;;;;4959195;28;20026;-76
2021/12/29 08:22:17;;;;;;;9.45;8.40;;;7.30;99.90;;;;;;4968153;28;20491;-76
2021/12/29 08:24:43;;;;;;;11.27;10.10;;;7.40;99.90;;;;;;4970919;28;20451;-75
2021/12/29 08:27:09;;;;;;;15.63;8.57;;;7.40;99.90;;;;;;4966358;28;20027;-75
2021/12/29 08:29:35;;;;;;;8.23;7.38;;;7.40;99.90;;;;;;4955283;28;20031;-75
2021/12/29 08:32:01;;;;;;;5.22;4.43;;;7.30;99.90;;;;;;4969360;28;20030;-76
2021/12/29 08:34:27;;;;;;;8.18;7.38;;;7.40;99.90;;;;;;4957700;28;20438;-76
2021/12/29 08:36:53;;;;;;;7.88;7.15;;;7.40;99.90;;;;;;4970415;28;20515;-76
2021/12/29 08:39:18;;;;;;;6.07;5.15;;;7.40;99.90;;;;;;4967582;28;20479;-76
2021/12/29 08:41:49;;;;;;;7.18;6.47;;;7.40;99.90;;;;;;4957866;28;20110;-76
2021/12/29 08:44:15;;;;;;;6.15;5.55;;;7.50;99.90;;;;;;4962389;28;20505;-75
2021/12/29 08:46:41;;;;;;;9.43;5.40;;;7.50;99.90;;;;;;4961879;28;20088;-75
2021/12/29 08:49:07;;;;;;;8.75;5.95;;;7.50;99.90;;;;;;4964737;28;20062;-75
2021/12/29 08:51:33;;;;;;;3.35;2.83;;;7.60;99.90;;;;;;4958635;28;20026;-76
2021/12/29 08:53:59;;;;;;;5.47;4.35;;;7.60;99.90;;;;;;4969068;28;20030;-76
2021/12/29 08:56:25;;;;;;;7.03;5.35;;;7.60;99.90;;;;;;4964686;28;20046;-76
2021/12/29 08:58:53;;;;;;;7.43;5.80;;;7.60;99.90;;;;;;4963267;28;20126;-75
2021/12/29 09:01:21;;;;;;;7.97;5.10;;;7.60;99.90;;;;;;4966253;28;20035;-75
2021/12/29 09:03:50;;;;;;;6.85;5.70;;;7.60;99.90;;;;;;4965190;28;20034;-76
2021/12/29 09:06:16;;;;;;;7.93;6.45;;;7.60;99.90;;;;;;4968646;28;20077;-75
2021/12/29 09:08:43;;;;;;;7.95;5.85;;;7.60;99.90;;;;;;4967622;28;20439;-75
2021/12/29 09:11:10;;;;;;;4.82;3.75;;;7.60;99.90;;;;;;4965435;28;20059;-75
2021/12/29 09:13:36;;;;;;;10.23;5.82;;;7.60;99.90;;;;;;4958694;28;20027;-75
2021/12/29 09:16:03;;;;;;;7.05;5.22;;;7.60;99.90;;;;;;4959535;28;20082;-75
2021/12/29 09:18:31;;;;;;;9.30;5.68;;;7.60;99.90;;;;;;4957548;28;20031;-75
2021/12/29 09:21:05;;;;;;;5.60;4.00;;;7.60;99.90;;;;;;4960780;28;20043;-75
2021/12/29 09:23:31;;;;;;;14.02;7.90;;;7.60;99.90;;;;;;4963634;28;20039;-76
2021/12/29 09:25:57;;;;;;;12.77;8.60;;;7.60;99.90;;;;;;4953720;28;20077;-76
2021/12/29 09:28:23;;;;;;;7.30;6.00;;;7.60;99.90;;;;;;4962139;28;20527;-76
2021/12/29 09:30:50;;;;;;;5.50;4.63;;;7.60;99.90;;;;;;4966684;28;20034;-74
2021/12/29 09:33:19;;;;;;;2.40;2.20;;;7.70;99.90;;;;;;4966449;28;20030;-76
2021/12/29 09:35:47;;;;;;;2.58;2.17;;;7.70;99.90;;;;;;4961223;28;20101;-76
2021/12/29 09:38:13;;;;;;;3.53;2.08;;;7.70;99.90;;;;;;4957823;28;20845;-76
2021/12/29 09:40:39;;;;;;;3.95;2.30;;;7.80;99.90;;;;;;4966190;28;20248;-75
2021/12/29 09:43:09;;;;;;;4.20;2.42;;;7.80;99.90;;;;;;4962050;28;20090;-75
2021/12/29 09:45:39;;;;;;;4.22;2.65;;;7.90;99.90;;;;;;4958958;28;20039;-75
2021/12/29 09:48:05;;;;;;;2.88;2.40;;;7.90;99.90;;;;;;4963384;28;20022;-75
2021/12/29 09:50:31;;;;;;;4.55;2.92;;;8.00;99.90;;;;;;4961224;28;20031;-76
2021/12/29 09:52:58;;;;;;;4.13;3.00;;;8.00;99.90;;;;;;4959780;28;20035;-76
2021/12/29 09:55:25;;;;;;;3.13;2.60;;;8.00;99.90;;;;;;4961084;28;20034;-75
2021/12/29 09:57:54;;;;;;;2.40;2.20;;;8.00;99.90;;;;;;4964259;28;20503;-77
2021/12/29 10:00:23;;;;;;;3.97;3.58;;;8.10;99.90;;;;;;4959036;28;20487;-77
2021/12/29 10:02:50;;;;;;;3.30;3.00;;;8.10;99.90;;;;;;4956614;28;20024;-76
2021/12/29 10:05:16;;;;;;;5.10;3.50;;;8.10;99.90;;;;;;4953519;28;20030;-75
2021/12/29 10:07:42;;;;;;;5.65;4.13;;;8.10;99.90;;;;;;4968455;28;20049;-75
2021/12/29 10:10:19;;;;;;;3.65;2.65;;;8.10;99.90;;;;;;4961387;28;20601;-76
2021/12/29 10:12:45;;;;;;;3.65;2.47;;;8.10;99.90;;;;;;4957395;28;20023;-75
2021/12/29 10:15:11;;;;;;;2.88;2.10;;;;;;;;;;4959103;28;20027;-76
2021/12/29 10:17:37;;;;;;;2.08;1.88;;;8.20;99.90;;;;;;4958098;28;20394;-75
2021/12/29 10:20:11;;;;;;;3.88;1.92;;;8.20;99.90;;;;;;4954793;28;20031;-76
2021/12/29 10:22:37;;;;;;;3.35;2.17;;;8.20;99.90;;;;;;4961622;28;20031;-75
2021/12/29 10:25:15;;;;;;;3.22;1.92;;;8.20;99.90;;;;;;4959182;28;20380;-75
2021/12/29 10:27:41;;;;;;;3.92;2.33;;;8.20;99.90;;;;;;4961445;28;20081;-75
2021/12/29 10:30:29;;;;;;;2.47;2.00;;;8.20;99.90;;;;;;4960354;28;20037;-75
2021/12/29 10:32:58;;;;;;;2.97;2.03;;;8.10;99.90;;;;;;4954912;28;20050;-75
2021/12/29 10:35:31;;;;;;;2.95;1.90;;;8.20;99.90;;;;;;4954198;28;20027;-75
2021/12/29 10:38:19;;;;;;;1.60;1.50;;;8.10;99.90;;;;;;4956650;28;20027;-75
2021/12/29 10:40:46;;;;;;;2.53;2.10;;;8.10;99.90;;;;;;4963235;28;20023;-76
2021/12/29 10:43:12;;;;;;;3.13;2.35;;;8.10;99.90;;;;;;4958777;28;20119;-75
2021/12/29 10:45:40;;;;;;;6.97;3.65;;;8.10;99.90;;;;;;4952383;28;20031;-75
2021/12/29 10:48:22;;;;;;;18.88;10.70;;;8.10;99.90;;;;;;4953176;28;20550;-75
2021/12/29 10:51:06;;;;;;;3.58;2.88;;;8.00;99.90;;;;;;4957779;28;20032;-76
2021/12/29 10:53:34;;;;;;;4.57;3.30;;;8.00;99.90;;;;;;4960714;28;20431;-75
2021/12/29 10:56:02;;;;;;;4.47;3.60;;;8.00;99.90;;;;;;4955852;28;20046;-77
2021/12/29 10:58:31;;;;;;;3.60;3.25;;;8.00;99.90;;;;;;4956649;28;20101;-76
2021/12/29 11:01:05;;;;;;;6.93;4.80;;;8.00;99.90;;;;;;4957289;28;21393;-76
2021/12/29 11:03:32;;;;;;;8.00;5.15;;;8.00;99.90;;;;;;4958122;28;20026;-75
2021/12/29 11:06:01;;;;;;;5.97;4.95;;;8.10;99.90;;;;;;4958927;28;21577;-75
2021/12/29 11:08:30;;;;;;;5.95;4.88;;;8.10;99.90;;;;;;4956756;28;20045;-75
2021/12/29 11:11:06;;;;;;;4.05;3.20;;;8.20;99.90;;;;;;4957867;28;20498;-76
2021/12/29 11:13:33;;;;;;;7.45;5.30;;;8.20;99.90;;;;;;4960720;28;20042;-75
2021/12/29 11:16:00;;;;;;;6.10;5.07;;;8.20;99.90;;;;;;4960044;28;20035;-75
2021/12/29 11:18:39;;;;;;;4.10;3.70;;;8.30;99.90;;;;;;4957417;28;20039;-75
2021/12/29 11:21:05;;;;;;;7.25;6.55;;;8.30;99.90;;;;;;4957448;28;20038;-75
2021/12/29 11:23:31;;;;;;;4.97;4.47;;;8.40;99.90;;;;;;4961143;28;20117;-76
2021/12/29 11:26:00;;;;;;;6.18;5.30;;;8.50;99.90;;;;;;4960088;28;20129;-75
2021/12/29 11:28:30;;;;;;;5.25;4.50;;;8.50;99.90;;;;;;4960152;28;20483;-75
2021/12/29 11:30:59;;;;;;;6.93;5.68;;;8.50;99.90;;;;;;4962166;28;20379;-75
2021/12/29 11:33:30;;;;;;;5.18;4.07;;;8.50;99.90;;;;;;4968106;28;20118;-75
2021/12/29 11:35:55;;;;;;;5.03;3.78;;;8.50;99.90;;;;;;4961090;28;20054;-75
2021/12/29 11:38:23;;;;;;;4.40;4.00;;;8.50;99.90;;;;;;4959453;28;20143;-75
2021/12/29 11:40:52;;;;;;;4.20;3.80;;;8.60;99.90;;;;;;4969051;28;20088;-75
2021/12/29 11:43:20;;;;;;;7.05;6.32;;;8.60;99.90;;;;;;4959442;28;20503;-74
2021/12/29 11:45:49;;;;;;;3.83;3.15;;;8.60;99.90;;;;;;4970284;28;20030;-77
2021/12/29 11:48:17;;;;;;;2.40;2.20;;;8.70;99.90;;;;;;4960221;28;20463;-76
2021/12/29 11:51:10;;;;;;;3.28;2.35;;;8.80;99.90;;;;;;4962312;28;20388;-75
2021/12/29 11:53:51;;;;;;;2.03;1.80;;;8.80;99.90;;;;;;4954662;28;20032;-75
2021/12/29 11:56:21;;;;;;;1.90;1.80;;;8.90;99.90;;;;;;4962933;28;20043;-75
2021/12/29 11:58:48;;;;;;;2.13;1.95;;;8.90;99.90;;;;;;4960451;28;20070;-75
2021/12/29 12:01:19;;;;;;;2.70;2.35;;;8.90;99.90;;;;;;4963967;28;20039;-75
2021/12/29 12:03:50;;;;;;;3.17;2.83;;;8.90;99.90;;;;;;4964049;28;20402;-76
2021/12/29 12:06:38;;;;;;;3.80;3.08;;;8.90;99.90;;;;;;4965249;28;20035;-75
2021/12/29 12:09:17;;;;;;;3.53;3.17;;;8.90;99.90;;;;;;4960155;28;20529;-76
2021/12/29 12:12:00;;;;;;;4.32;3.10;;;8.90;99.90;;;;;;4959231;28;20042;-75
2021/12/29 12:14:31;;;;;;;8.00;4.25;;;8.80;99.90;;;;;;4960903;28;20038;-76
2021/12/29 12:17:00;;;;;;;10.77;6.43;;;8.80;99.90;;;;;;4965672;28;20169;-75
2021/12/29 12:19:28;;;;;;;12.85;7.28;;;8.80;99.90;;;;;;4966883;28;20139;-75
2021/12/29 12:22:17;;;;;;;9.88;5.80;;;8.80;99.90;;;;;;4962214;28;20038;-75
2021/12/29 12:24:52;;;;;;;9.75;5.18;;;8.80;99.90;;;;;;4958726;28;20041;-75
2021/12/29 12:27:34;;;;;;;6.63;5.03;;;8.80;99.90;;;;;;4960969;28;20033;-75
2021/12/29 12:30:22;;;;;;;13.02;7.05;;;8.80;99.90;;;;;;4964067;28;20042;-75
2021/12/29 12:32:55;;;;;;;9.50;6.97;;;8.80;99.90;;;;;;4959675;28;20031;-74
2021/12/29 12:35:30;;;;;;;;;;;8.80;99.90;;;;;;4956477;28;20085;-75
2021/12/29 12:37:56;;;;;;;17.92;11.30;;;8.70;99.90;;;;;;4962928;28;19918;-75
2021/12/29 12:40:25;;;;;;;20.38;12.35;;;8.70;99.90;;;;;;4968157;28;20023;-75
2021/12/29 12:43:10;;;;;;;14.93;10.15;;;8.70;99.90;;;;;;4967075;28;20055;-75
2021/12/29 12:45:37;;;;;;;15.18;10.23;;;8.70;99.90;;;;;;4966290;28;20023;-75
2021/12/29 12:48:09;;;;;;;20.58;13.23;;;8.70;99.90;;;;;;4970400;28;20030;-75
2021/12/29 12:50:36;;;;;;;12.63;8.43;;;8.70;99.90;;;;;;4964561;28;20154;-76
2021/12/29 12:53:02;;;;;;;13.40;10.20;;;8.70;99.90;;;;;;4966964;28;20107;-75
2021/12/29 12:55:30;;;;;;;16.30;10.40;;;8.60;99.90;;;;;;4965374;28;20031;-74
2021/12/29 12:58:07;;;;;;;16.35;10.60;;;8.60;99.90;;;;;;4960617;28;20508;-75
2021/12/29 13:00:33;;;;;;;14.57;10.23;;;8.50;99.90;;;;;;4957370;28;20030;-75
2021/12/29 13:03:03;;;;;;;14.48;10.20;;;8.50;99.90;;;;;;4960009;28;20035;-75
2021/12/29 13:05:29;;;;;;;15.65;11.18;;;8.50;99.90;;;;;;4959951;28;20023;-75